Florida, Missouri
Current Conditions -  °F | °C
As of 7:35 PM on Thursday 27 Nov 2014 (Local Time) from KHAE Reporting Station
Clear Clear  
Wind Chill: 23°   Ceiling: Unl
Heat Index: 23°   Visibility: 10mi
Dew Point: 14°   Wind: 0mph
Humidity: 68%   Direction: NA
Pressure: 30.42"   Gusts: NA
Location:  39.5441°N, 91.8382°W
Report Text: KHAE 280135Z AUTO 00000KT 10SM CLR M05/M10 A3042 RMK AO2
Loading
Personal Weather Stations






























Interactive Weather Map New forecast layout! Learn more

10-Day Weather Forecast

Advertisements
Track Severe Weather on mobile